Terminal Aerodrome Forecast
Issued by NWS Corpus Christi, TX

Home | Current Version | Previous Version | Text Only | Print | Product List | Glossary On
Versions: 1 2 3 4 5 6 7 8 9 10 11 12 13 14 15 16 17
000
FTUS44 KCRP 310527
TAFVCT
TAF
KVCT 310527Z 3106/0106 VRB03KT P6SM FEW015 BKN250
      TEMPO 3109/3113 5SM BR
     FM311500 17007KT P6SM SCT030
     FM312100 16015G20KT P6SM FEW050
     FM010300 15006KT P6SM SKC=

USA.gov is the U.S. government's official web portal to all federal, state and local government web resources and services.